Franklin, VA

2:45 AM EDT on July 08, 2015 (GMT -0400)
Aaron's Weather Service | | Change Station
CLOSE
Current Station
Personal Weather Station
Location: Franklin, VA
Elevation: 98 ft
Nearby Weather Stations
Active Advisory: Flood Warning

Elev 98 ft 36.70 °N, 76.96 °W | Updated 3 seconds ago

Clear
Clear
76.3 °F
Feels Like 77 °F
N
8.1
Wind Variable Wind from SW
Gusts 9.9 mph

Today
High -- | Low -- °F
--% Chance of Precip.
Yesterday
High -- | Low -- °F
Precip. -- in
5:56 AM 8:29 PM
Waning Gibbous, 57% visible
Pressure 30.07 in
Visibility 10.0 miles
Clouds Clear
Heat Index 77 °F
Dew Point 71 °F
Humidity 83%
Rainfall 0.00 in
Snow Depth Not available.
UV 0 out of 12
Pollen 3.60 out of 12
Air Quality Not available.
Flu Activity Not available.
METAR KFKN 080635Z AUTO 20005KT 10SM CLR 25/23 A3007 RMK AO2 T02450225

More Conditions Fewer Conditions

Pressure 30.07 in
Visibility 10.0 miles
Clouds Clear
Heat Index 77 °F
Dew Point 71 °F
Humidity 83%
Rainfall 0.00 in
Snow Depth Not available.
UV 0 out of 12
Pollen 3.60 out of 12
Air Quality Not available.
Flu Activity Not available.
METAR KFKN 080635Z AUTO 20005KT 10SM CLR 25/23 A3007 RMK AO2 T02450225

More Conditions Fewer Conditions

10-Day Weather Forecast

×

Almanac

Astronomy

Jul. 08, 2015 Rise Set
Actual Time
Civil Twilight
Nautical Twilight
Astronomical Twilight
Moon
Length of Visible Light
Length of Day
Tomorrow will be .
, % of the Moon is Illuminated

Today's Extremes

State Highs State Lows

Community

WunderPhotos

Upload Photos

1,836,064 photos uploaded!

WunderBlogs® & News

Nearby

Air Quality

  Air Quality AQ Index Pollutant
Not available.

Snow Depth

Station Depth Elevation

Earthquake Activity

City Distance Mag. Time & Date
Minimum magnitude displayed is 2.5.

Coastal Water Temperatures

Place Temperature

Stations

Nearby Weather Stations

Station Location Temp. Windchill Dew Point Humidity Wind Precip. Elev Updated Type
                   
Flood Warning
Statement as of 9:47 PM EDT on July 07, 2015

The Flood Warning continues for
the Blackwater river above Franklin
* until Wednesday morning... or until the warning is cancelled.
* At 08:45 PM Tuesday the stage was 10.8 feet.
* Minor flooding is forecast.
* Flood stage is 10.8 feet.
* Forecast... the river has reached flood stage and is at
or near crest.
* At 10.8 feet... a portion of Barretts Landing river walk
is innundated in downtown Franklin area.
This river level is comparable to a previous crest of 11.3
feet on may 2 2014.


Lat... Lon 3673 7698 3686 7692 3689 7685 3686 7680
      3670 7687 3661 7685 3661 7700